sensor_id;sensor_type;location;lat;lon;timestamp;temperature;humidity
59923;DHT22;45778;51.142;3.732;2023-03-14T00:02:19;10.50;99.90
59923;DHT22;45778;51.142;3.732;2023-03-14T00:04:44;10.40;99.90
59923;DHT22;45778;51.142;3.732;2023-03-14T00:07:11;10.40;99.90
59923;DHT22;45778;51.142;3.732;2023-03-14T00:09:37;10.40;99.90
59923;DHT22;45778;51.142;3.732;2023-03-14T00:12:03;10.40;99.90
59923;DHT22;45778;51.142;3.732;2023-03-14T00:14:29;10.40;99.90
59923;DHT22;45778;51.142;3.732;2023-03-14T00:16:56;10.40;99.90
59923;DHT22;45778;51.142;3.732;2023-03-14T00:19:21;10.40;99.90
59923;DHT22;45778;51.142;3.732;2023-03-14T00:21:47;10.40;99.90
59923;DHT22;45778;51.142;3.732;2023-03-14T00:24:13;10.40;99.90
59923;DHT22;45778;51.142;3.732;2023-03-14T00:26:39;10.40;99.90
59923;DHT22;45778;51.142;3.732;2023-03-14T00:29:05;10.40;99.90
59923;DHT22;45778;51.142;3.732;2023-03-14T00:31:30;10.40;99.90
59923;DHT22;45778;51.142;3.732;2023-03-14T00:33:56;10.30;99.90
59923;DHT22;45778;51.142;3.732;2023-03-14T00:36:22;10.40;99.90
59923;DHT22;45778;51.142;3.732;2023-03-14T00:38:50;10.40;99.90
59923;DHT22;45778;51.142;3.732;2023-03-14T00:41:19;10.40;99.90
59923;DHT22;45778;51.142;3.732;2023-03-14T00:43:45;10.30;99.90
59923;DHT22;45778;51.142;3.732;2023-03-14T00:46:11;10.30;99.90
59923;DHT22;45778;51.142;3.732;2023-03-14T00:48:37;10.30;99.90
59923;DHT22;45778;51.142;3.732;2023-03-14T00:51:05;10.30;99.90
59923;DHT22;45778;51.142;3.732;2023-03-14T00:53:30;10.20;99.90
59923;DHT22;45778;51.142;3.732;2023-03-14T00:55:56;10.20;99.90
59923;DHT22;45778;51.142;3.732;2023-03-14T00:58:22;10.20;99.90
59923;DHT22;45778;51.142;3.732;2023-03-14T01:00:48;10.20;99.90
59923;DHT22;45778;51.142;3.732;2023-03-14T01:03:14;10.30;99.90
59923;DHT22;45778;51.142;3.732;2023-03-14T01:05:41;10.20;99.90
59923;DHT22;45778;51.142;3.732;2023-03-14T01:08:07;10.30;99.90
59923;DHT22;45778;51.142;3.732;2023-03-14T01:10:34;10.30;99.90
59923;DHT22;45778;51.142;3.732;2023-03-14T01:13:02;10.40;99.90
59923;DHT22;45778;51.142;3.732;2023-03-14T01:15:28;10.40;99.90
59923;DHT22;45778;51.142;3.732;2023-03-14T01:17:54;10.40;99.90
59923;DHT22;45778;51.142;3.732;2023-03-14T01:20:20;10.40;99.90
59923;DHT22;45778;51.142;3.732;2023-03-14T01:22:45;10.40;99.90
59923;DHT22;45778;51.142;3.732;2023-03-14T01:25:14;10.40;99.90
59923;DHT22;45778;51.142;3.732;2023-03-14T01:27:40;10.40;99.90
59923;DHT22;45778;51.142;3.732;2023-03-14T01:30:06;10.40;99.90
59923;DHT22;45778;51.142;3.732;2023-03-14T01:32:33;10.40;99.90
59923;DHT22;45778;51.142;3.732;2023-03-14T01:34:59;10.40;99.90
59923;DHT22;45778;51.142;3.732;2023-03-14T01:37:24;10.40;99.90
59923;DHT22;45778;51.142;3.732;2023-03-14T01:39:50;10.40;99.90
59923;DHT22;45778;51.142;3.732;2023-03-14T01:42:16;10.40;99.90
59923;DHT22;45778;51.142;3.732;2023-03-14T01:47:20;10.40;99.90
59923;DHT22;45778;51.142;3.732;2023-03-14T01:49:55;10.40;99.90
59923;DHT22;45778;51.142;3.732;2023-03-14T01:52:29;10.40;99.90
59923;DHT22;45778;51.142;3.732;2023-03-14T01:55:21;10.30;99.90
59923;DHT22;45778;51.142;3.732;2023-03-14T01:57:48;10.40;99.90
59923;DHT22;45778;51.142;3.732;2023-03-14T02:00:21;10.40;99.90
59923;DHT22;45778;51.142;3.732;2023-03-14T02:02:49;10.40;99.90
59923;DHT22;45778;51.142;3.732;2023-03-14T02:05:18;10.30;99.90
59923;DHT22;45778;51.142;3.732;2023-03-14T02:07:55;10.40;99.90
59923;DHT22;45778;51.142;3.732;2023-03-14T02:10:30;10.40;99.90
59923;DHT22;45778;51.142;3.732;2023-03-14T02:12:59;10.30;99.90
59923;DHT22;45778;51.142;3.732;2023-03-14T02:15:27;10.40;99.90
59923;DHT22;45778;51.142;3.732;2023-03-14T02:17:53;10.40;99.90
59923;DHT22;45778;51.142;3.732;2023-03-14T02:22:50;10.40;99.90
59923;DHT22;45778;51.142;3.732;2023-03-14T02:28:09;10.40;99.90
59923;DHT22;45778;51.142;3.732;2023-03-14T02:30:35;10.30;99.90
59923;DHT22;45778;51.142;3.732;2023-03-14T02:33:05;10.30;99.90
59923;DHT22;45778;51.142;3.732;2023-03-14T02:36:01;10.30;99.90
59923;DHT22;45778;51.142;3.732;2023-03-14T02:41:03;10.40;99.90
59923;DHT22;45778;51.142;3.732;2023-03-14T02:43:28;10.40;99.90
59923;DHT22;45778;51.142;3.732;2023-03-14T02:45:55;10.30;99.90
59923;DHT22;45778;51.142;3.732;2023-03-14T02:48:25;10.30;99.90
59923;DHT22;45778;51.142;3.732;2023-03-14T02:50:55;10.40;99.90
59923;DHT22;45778;51.142;3.732;2023-03-14T02:53:29;10.30;99.90
59923;DHT22;45778;51.142;3.732;2023-03-14T02:55:56;10.40;99.90
59923;DHT22;45778;51.142;3.732;2023-03-14T02:58:22;10.30;99.90
59923;DHT22;45778;51.142;3.732;2023-03-14T03:00:48;10.20;99.90
59923;DHT22;45778;51.142;3.732;2023-03-14T03:03:15;10.20;99.90
59923;DHT22;45778;51.142;3.732;2023-03-14T03:05:40;10.10;99.90
59923;DHT22;45778;51.142;3.732;2023-03-14T03:08:08;10.10;99.90
59923;DHT22;45778;51.142;3.732;2023-03-14T03:10:34;10.00;99.90
59923;DHT22;45778;51.142;3.732;2023-03-14T03:12:59;10.10;99.90
59923;DHT22;45778;51.142;3.732;2023-03-14T03:15:25;10.00;99.90
59923;DHT22;45778;51.142;3.732;2023-03-14T03:17:51;10.00;99.90
59923;DHT22;45778;51.142;3.732;2023-03-14T03:20:17;10.10;99.90
59923;DHT22;45778;51.142;3.732;2023-03-14T03:22:43;10.10;99.90
59923;DHT22;45778;51.142;3.732;2023-03-14T03:25:09;10.10;99.90
59923;DHT22;45778;51.142;3.732;2023-03-14T03:27:35;10.10;99.90
59923;DHT22;45778;51.142;3.732;2023-03-14T03:30:05;10.10;99.90
59923;DHT22;45778;51.142;3.732;2023-03-14T03:32:31;10.10;99.90
59923;DHT22;45778;51.142;3.732;2023-03-14T03:34:57;10.10;99.90
59923;DHT22;45778;51.142;3.732;2023-03-14T03:37:23;10.10;99.90
59923;DHT22;45778;51.142;3.732;2023-03-14T03:39:52;10.10;99.90
59923;DHT22;45778;51.142;3.732;2023-03-14T03:42:18;10.10;99.90
59923;DHT22;45778;51.142;3.732;2023-03-14T03:44:44;10.20;99.90
59923;DHT22;45778;51.142;3.732;2023-03-14T03:47:10;10.10;99.90
59923;DHT22;45778;51.142;3.732;2023-03-14T03:49:36;10.10;99.90
59923;DHT22;45778;51.142;3.732;2023-03-14T03:52:01;10.20;99.90
59923;DHT22;45778;51.142;3.732;2023-03-14T03:54:27;10.20;99.90
59923;DHT22;45778;51.142;3.732;2023-03-14T03:56:54;10.30;99.90
59923;DHT22;45778;51.142;3.732;2023-03-14T03:59:20;10.20;99.90
59923;DHT22;45778;51.142;3.732;2023-03-14T04:01:46;10.30;99.90
59923;DHT22;45778;51.142;3.732;2023-03-14T04:04:12;10.20;99.90
59923;DHT22;45778;51.142;3.732;2023-03-14T04:06:37;10.10;99.90
59923;DHT22;45778;51.142;3.732;2023-03-14T04:09:03;10.00;99.90
59923;DHT22;45778;51.142;3.732;2023-03-14T04:11:29;10.00;99.90
59923;DHT22;45778;51.142;3.732;2023-03-14T04:13:55;10.00;99.90
59923;DHT22;45778;51.142;3.732;2023-03-14T04:16:23;10.00;99.90
59923;DHT22;45778;51.142;3.732;2023-03-14T04:18:49;10.00;99.90
59923;DHT22;45778;51.142;3.732;2023-03-14T04:21:15;10.00;99.90
59923;DHT22;45778;51.142;3.732;2023-03-14T04:23:41;10.00;99.90
59923;DHT22;45778;51.142;3.732;2023-03-14T04:26:07;9.90;99.90
59923;DHT22;45778;51.142;3.732;2023-03-14T04:28:32;9.90;99.90
59923;DHT22;45778;51.142;3.732;2023-03-14T04:30:58;9.90;99.90
59923;DHT22;45778;51.142;3.732;2023-03-14T04:33:24;9.90;99.90
59923;DHT22;45778;51.142;3.732;2023-03-14T04:35:53;9.90;99.90
59923;DHT22;45778;51.142;3.732;2023-03-14T04:38:19;9.90;99.90
59923;DHT22;45778;51.142;3.732;2023-03-14T04:40:45;9.90;99.90
59923;DHT22;45778;51.142;3.732;2023-03-14T04:43:11;9.90;99.90
59923;DHT22;45778;51.142;3.732;2023-03-14T04:45:41;9.90;99.90
59923;DHT22;45778;51.142;3.732;2023-03-14T04:48:06;9.90;99.90
59923;DHT22;45778;51.142;3.732;2023-03-14T04:50:32;9.90;99.90
59923;DHT22;45778;51.142;3.732;2023-03-14T04:52:58;9.90;99.90
59923;DHT22;45778;51.142;3.732;2023-03-14T04:55:23;9.90;99.90
59923;DHT22;45778;51.142;3.732;2023-03-14T04:57:49;9.90;99.90
59923;DHT22;45778;51.142;3.732;2023-03-14T05:00:15;9.90;99.90
59923;DHT22;45778;51.142;3.732;2023-03-14T05:02:43;10.00;99.90
59923;DHT22;45778;51.142;3.732;2023-03-14T05:05:09;9.90;99.90
59923;DHT22;45778;51.142;3.732;2023-03-14T05:07:35;9.80;99.90
59923;DHT22;45778;51.142;3.732;2023-03-14T05:10:01;9.80;99.90
59923;DHT22;45778;51.142;3.732;2023-03-14T05:12:26;9.80;99.90
59923;DHT22;45778;51.142;3.732;2023-03-14T05:14:52;9.70;99.90
59923;DHT22;45778;51.142;3.732;2023-03-14T05:17:18;9.70;99.90
59923;DHT22;45778;51.142;3.732;2023-03-14T05:19:44;9.70;99.90
59923;DHT22;45778;51.142;3.732;2023-03-14T05:22:10;9.70;99.90
59923;DHT22;45778;51.142;3.732;2023-03-14T05:24:36;9.60;99.90
59923;DHT22;45778;51.142;3.732;2023-03-14T05:27:03;9.60;99.90
59923;DHT22;45778;51.142;3.732;2023-03-14T05:29:29;9.60;99.90
59923;DHT22;45778;51.142;3.732;2023-03-14T05:31:54;9.60;99.90
59923;DHT22;45778;51.142;3.732;2023-03-14T05:34:20;9.50;99.90
59923;DHT22;45778;51.142;3.732;2023-03-14T05:36:46;9.50;99.90
59923;DHT22;45778;51.142;3.732;2023-03-14T05:39:11;9.50;99.90
59923;DHT22;45778;51.142;3.732;2023-03-14T05:41:37;9.40;99.90
59923;DHT22;45778;51.142;3.732;2023-03-14T05:44:03;9.20;99.90
59923;DHT22;45778;51.142;3.732;2023-03-14T05:46:29;8.90;99.90
59923;DHT22;45778;51.142;3.732;2023-03-14T05:48:57;8.80;99.90
59923;DHT22;45778;51.142;3.732;2023-03-14T05:51:23;8.60;99.90
59923;DHT22;45778;51.142;3.732;2023-03-14T05:53:48;8.50;99.90
59923;DHT22;45778;51.142;3.732;2023-03-14T05:56:14;8.40;99.90
59923;DHT22;45778;51.142;3.732;2023-03-14T05:58:40;8.30;99.90
59923;DHT22;45778;51.142;3.732;2023-03-14T06:01:06;8.30;99.90
59923;DHT22;45778;51.142;3.732;2023-03-14T06:03:32;8.20;99.90
59923;DHT22;45778;51.142;3.732;2023-03-14T06:05:58;8.10;99.90
59923;DHT22;45778;51.142;3.732;2023-03-14T06:08:24;8.00;99.90
59923;DHT22;45778;51.142;3.732;2023-03-14T06:10:50;8.00;99.90
59923;DHT22;45778;51.142;3.732;2023-03-14T06:13:17;7.80;99.90
59923;DHT22;45778;51.142;3.732;2023-03-14T06:15:43;7.60;99.90
59923;DHT22;45778;51.142;3.732;2023-03-14T06:18:09;7.50;99.90
59923;DHT22;45778;51.142;3.732;2023-03-14T06:20:39;7.50;99.90
59923;DHT22;45778;51.142;3.732;2023-03-14T06:23:05;7.50;99.90
59923;DHT22;45778;51.142;3.732;2023-03-14T06:25:32;7.40;99.90
59923;DHT22;45778;51.142;3.732;2023-03-14T06:27:58;7.40;99.90
59923;DHT22;45778;51.142;3.732;2023-03-14T06:30:24;7.30;99.90
59923;DHT22;45778;51.142;3.732;2023-03-14T06:32:49;7.30;99.90
59923;DHT22;45778;51.142;3.732;2023-03-14T06:35:15;7.20;99.90
59923;DHT22;45778;51.142;3.732;2023-03-14T06:37:41;7.20;99.90
59923;DHT22;45778;51.142;3.732;2023-03-14T06:40:09;7.10;99.90
59923;DHT22;45778;51.142;3.732;2023-03-14T06:42:35;7.20;99.90
59923;DHT22;45778;51.142;3.732;2023-03-14T06:45:00;7.10;99.90
59923;DHT22;45778;51.142;3.732;2023-03-14T06:47:26;7.10;99.90
59923;DHT22;45778;51.142;3.732;2023-03-14T06:49:52;7.00;99.90
59923;DHT22;45778;51.142;3.732;2023-03-14T06:52:17;7.10;99.90
59923;DHT22;45778;51.142;3.732;2023-03-14T06:54:43;7.10;99.90
59923;DHT22;45778;51.142;3.732;2023-03-14T06:57:09;7.10;99.90
59923;DHT22;45778;51.142;3.732;2023-03-14T06:59:34;7.10;99.90
59923;DHT22;45778;51.142;3.732;2023-03-14T07:02:00;7.10;99.90
59923;DHT22;45778;51.142;3.732;2023-03-14T07:04:26;7.10;99.90
59923;DHT22;45778;51.142;3.732;2023-03-14T07:06:51;7.10;99.90
59923;DHT22;45778;51.142;3.732;2023-03-14T07:09:17;7.00;99.90
59923;DHT22;45778;51.142;3.732;2023-03-14T07:11:43;7.10;99.90
59923;DHT22;45778;51.142;3.732;2023-03-14T07:14:09;7.20;99.90
59923;DHT22;45778;51.142;3.732;2023-03-14T07:16:35;7.20;99.90
59923;DHT22;45778;51.142;3.732;2023-03-14T07:19:01;7.10;99.90
59923;DHT22;45778;51.142;3.732;2023-03-14T07:21:27;7.10;99.90
59923;DHT22;45778;51.142;3.732;2023-03-14T07:23:53;7.20;99.90
59923;DHT22;45778;51.142;3.732;2023-03-14T07:26:19;7.10;99.90
59923;DHT22;45778;51.142;3.732;2023-03-14T07:28:44;7.10;99.90
59923;DHT22;45778;51.142;3.732;2023-03-14T07:31:10;7.10;99.90
59923;DHT22;45778;51.142;3.732;2023-03-14T07:33:36;7.20;99.90
59923;DHT22;45778;51.142;3.732;2023-03-14T07:36:02;7.10;99.90
59923;DHT22;45778;51.142;3.732;2023-03-14T07:38:28;7.20;99.90
59923;DHT22;45778;51.142;3.732;2023-03-14T07:41:01;7.20;99.90
59923;DHT22;45778;51.142;3.732;2023-03-14T07:43:28;7.10;99.90
59923;DHT22;45778;51.142;3.732;2023-03-14T07:45:54;7.10;99.90
59923;DHT22;45778;51.142;3.732;2023-03-14T07:48:19;7.10;99.90
59923;DHT22;45778;51.142;3.732;2023-03-14T07:50:48;7.00;99.90
59923;DHT22;45778;51.142;3.732;2023-03-14T07:53:15;7.00;99.90
59923;DHT22;45778;51.142;3.732;2023-03-14T07:55:40;7.00;99.90
59923;DHT22;45778;51.142;3.732;2023-03-14T07:58:06;7.00;99.90
59923;DHT22;45778;51.142;3.732;2023-03-14T08:00:32;6.90;99.90
59923;DHT22;45778;51.142;3.732;2023-03-14T08:02:58;7.00;99.90
59923;DHT22;45778;51.142;3.732;2023-03-14T08:05:24;7.00;99.90
59923;DHT22;45778;51.142;3.732;2023-03-14T08:07:50;7.00;99.90
59923;DHT22;45778;51.142;3.732;2023-03-14T08:10:16;7.00;99.90
59923;DHT22;45778;51.142;3.732;2023-03-14T08:12:51;6.90;99.90
59923;DHT22;45778;51.142;3.732;2023-03-14T08:15:19;6.90;99.90
59923;DHT22;45778;51.142;3.732;2023-03-14T08:17:45;6.70;99.90
59923;DHT22;45778;51.142;3.732;2023-03-14T08:20:11;6.70;99.90
59923;DHT22;45778;51.142;3.732;2023-03-14T08:22:37;6.50;99.90
59923;DHT22;45778;51.142;3.732;2023-03-14T08:25:04;6.50;99.90
59923;DHT22;45778;51.142;3.732;2023-03-14T08:27:30;6.50;99.90
59923;DHT22;45778;51.142;3.732;2023-03-14T08:29:55;6.40;99.90
59923;DHT22;45778;51.142;3.732;2023-03-14T08:32:21;6.40;99.90
59923;DHT22;45778;51.142;3.732;2023-03-14T08:34:49;6.40;99.90
59923;DHT22;45778;51.142;3.732;2023-03-14T08:37:14;6.50;99.90
59923;DHT22;45778;51.142;3.732;2023-03-14T08:39:40;6.50;99.90
59923;DHT22;45778;51.142;3.732;2023-03-14T08:42:06;6.60;99.90
59923;DHT22;45778;51.142;3.732;2023-03-14T08:44:32;6.70;99.90
59923;DHT22;45778;51.142;3.732;2023-03-14T08:46:57;6.80;99.90
59923;DHT22;45778;51.142;3.732;2023-03-14T08:49:23;6.90;99.90
59923;DHT22;45778;51.142;3.732;2023-03-14T08:51:49;6.90;99.90
59923;DHT22;45778;51.142;3.732;2023-03-14T08:54:14;7.00;99.90
59923;DHT22;45778;51.142;3.732;2023-03-14T08:56:40;7.10;99.90
59923;DHT22;45778;51.142;3.732;2023-03-14T08:59:06;7.10;99.90
59923;DHT22;45778;51.142;3.732;2023-03-14T09:01:33;7.20;99.90
59923;DHT22;45778;51.142;3.732;2023-03-14T09:03:59;7.30;99.90
59923;DHT22;45778;51.142;3.732;2023-03-14T09:06:25;7.30;99.90
59923;DHT22;45778;51.142;3.732;2023-03-14T09:08:50;7.40;99.90
59923;DHT22;45778;51.142;3.732;2023-03-14T09:11:16;7.40;99.90
59923;DHT22;45778;51.142;3.732;2023-03-14T09:13:44;7.40;99.90
59923;DHT22;45778;51.142;3.732;2023-03-14T09:16:10;7.30;99.90
59923;DHT22;45778;51.142;3.732;2023-03-14T09:18:36;7.10;99.90
59923;DHT22;45778;51.142;3.732;2023-03-14T09:21:02;7.00;99.90
59923;DHT22;45778;51.142;3.732;2023-03-14T09:23:28;6.90;99.90
59923;DHT22;45778;51.142;3.732;2023-03-14T09:25:58;6.90;99.90
59923;DHT22;45778;51.142;3.732;2023-03-14T09:28:24;6.80;99.90
59923;DHT22;45778;51.142;3.732;2023-03-14T09:30:50;6.70;99.90
59923;DHT22;45778;51.142;3.732;2023-03-14T09:33:17;6.40;99.90
59923;DHT22;45778;51.142;3.732;2023-03-14T09:35:42;6.20;99.90
59923;DHT22;45778;51.142;3.732;2023-03-14T09:38:08;6.10;99.90
59923;DHT22;45778;51.142;3.732;2023-03-14T09:40:35;6.00;99.90
59923;DHT22;45778;51.142;3.732;2023-03-14T09:43:02;5.90;99.90
59923;DHT22;45778;51.142;3.732;2023-03-14T09:45:36;5.90;99.90
59923;DHT22;45778;51.142;3.732;2023-03-14T09:48:03;5.80;99.90
59923;DHT22;45778;51.142;3.732;2023-03-14T09:50:42;5.70;99.90
59923;DHT22;45778;51.142;3.732;2023-03-14T09:53:19;5.70;99.90
59923;DHT22;45778;51.142;3.732;2023-03-14T09:55:47;5.70;99.90
59923;DHT22;45778;51.142;3.732;2023-03-14T09:58:18;5.70;99.90
59923;DHT22;45778;51.142;3.732;2023-03-14T10:00:44;5.80;99.90
59923;DHT22;45778;51.142;3.732;2023-03-14T10:05:40;5.70;99.90
59923;DHT22;45778;51.142;3.732;2023-03-14T10:08:06;5.80;99.90
59923;DHT22;45778;51.142;3.732;2023-03-14T10:10:32;5.70;99.90
59923;DHT22;45778;51.142;3.732;2023-03-14T10:16:08;5.90;99.90
59923;DHT22;45778;51.142;3.732;2023-03-14T10:18:33;6.00;99.90
59923;DHT22;45778;51.142;3.732;2023-03-14T10:21:26;6.10;99.90
59923;DHT22;45778;51.142;3.732;2023-03-14T10:23:53;6.10;99.90
59923;DHT22;45778;51.142;3.732;2023-03-14T10:26:24;6.10;99.90
59923;DHT22;45778;51.142;3.732;2023-03-14T10:28:55;6.00;99.90
59923;DHT22;45778;51.142;3.732;2023-03-14T10:31:26;6.10;99.90
59923;DHT22;45778;51.142;3.732;2023-03-14T10:34:22;6.20;99.90
59923;DHT22;45778;51.142;3.732;2023-03-14T10:36:53;6.40;99.90
59923;DHT22;45778;51.142;3.732;2023-03-14T10:41:56;6.60;99.90
59923;DHT22;45778;51.142;3.732;2023-03-14T10:44:27;6.70;99.90
59923;DHT22;45778;51.142;3.732;2023-03-14T10:47:00;6.90;99.90
59923;DHT22;45778;51.142;3.732;2023-03-14T10:49:37;7.10;99.90
59923;DHT22;45778;51.142;3.732;2023-03-14T10:52:26;7.40;99.90
59923;DHT22;45778;51.142;3.732;2023-03-14T10:55:01;7.80;99.90
59923;DHT22;45778;51.142;3.732;2023-03-14T10:57:27;8.20;99.90
59923;DHT22;45778;51.142;3.732;2023-03-14T10:59:55;8.30;99.90
59923;DHT22;45778;51.142;3.732;2023-03-14T11:02:28;8.50;99.90
59923;DHT22;45778;51.142;3.732;2023-03-14T11:05:21;8.70;99.90
59923;DHT22;45778;51.142;3.732;2023-03-14T11:07:53;8.90;99.90
59923;DHT22;45778;51.142;3.732;2023-03-14T11:10:31;8.90;99.90
59923;DHT22;45778;51.142;3.732;2023-03-14T11:13:16;8.90;99.90
59923;DHT22;45778;51.142;3.732;2023-03-14T11:35:33;7.50;99.90
59923;DHT22;45778;51.142;3.732;2023-03-14T11:38:40;7.10;99.90
59923;DHT22;45778;51.142;3.732;2023-03-14T11:41:23;6.90;99.90
59923;DHT22;45778;51.142;3.732;2023-03-14T11:43:58;6.80;99.90
59923;DHT22;45778;51.142;3.732;2023-03-14T11:46:38;6.70;99.90
59923;DHT22;45778;51.142;3.732;2023-03-14T11:49:36;6.80;99.90
59923;DHT22;45778;51.142;3.732;2023-03-14T11:52:16;7.10;99.90
59923;DHT22;45778;51.142;3.732;2023-03-14T11:54:56;7.20;99.90
59923;DHT22;45778;51.142;3.732;2023-03-14T11:57:24;7.20;99.90
59923;DHT22;45778;51.142;3.732;2023-03-14T12:00:12;7.00;99.90
59923;DHT22;45778;51.142;3.732;2023-03-14T12:03:17;6.90;99.90
59923;DHT22;45778;51.142;3.732;2023-03-14T12:13:49;7.20;99.90
59923;DHT22;45778;51.142;3.732;2023-03-14T12:18:47;7.50;99.90
59923;DHT22;45778;51.142;3.732;2023-03-14T12:21:13;7.50;99.90
59923;DHT22;45778;51.142;3.732;2023-03-14T12:23:55;7.40;99.90
59923;DHT22;45778;51.142;3.732;2023-03-14T12:26:27;7.40;99.90
59923;DHT22;45778;51.142;3.732;2023-03-14T12:36:48;7.00;99.90
59923;DHT22;45778;51.142;3.732;2023-03-14T12:39:50;6.90;99.90
59923;DHT22;45778;51.142;3.732;2023-03-14T12:50:14;6.20;99.90
59923;DHT22;45778;51.142;3.732;2023-03-14T12:52:49;6.10;99.90
59923;DHT22;45778;51.142;3.732;2023-03-14T12:55:24;6.30;99.90
59923;DHT22;45778;51.142;3.732;2023-03-14T12:58:29;6.40;99.90
59923;DHT22;45778;51.142;3.732;2023-03-14T13:01:00;6.60;99.90
59923;DHT22;45778;51.142;3.732;2023-03-14T13:03:42;6.90;99.90
59923;DHT22;45778;51.142;3.732;2023-03-14T13:06:10;7.20;99.90
59923;DHT22;45778;51.142;3.732;2023-03-14T13:11:08;7.30;99.90
59923;DHT22;45778;51.142;3.732;2023-03-14T13:13:35;7.30;99.90
59923;DHT22;45778;51.142;3.732;2023-03-14T13:16:02;7.00;99.90
59923;DHT22;45778;51.142;3.732;2023-03-14T13:18:39;6.70;99.90
59923;DHT22;45778;51.142;3.732;2023-03-14T13:23:38;6.90;99.90
59923;DHT22;45778;51.142;3.732;2023-03-14T13:26:11;7.20;99.90
59923;DHT22;45778;51.142;3.732;2023-03-14T13:28:38;7.40;99.90
59923;DHT22;45778;51.142;3.732;2023-03-14T13:31:04;7.60;99.90
59923;DHT22;45778;51.142;3.732;2023-03-14T13:33:34;7.70;99.90
59923;DHT22;45778;51.142;3.732;2023-03-14T13:36:02;7.50;99.90
59923;DHT22;45778;51.142;3.732;2023-03-14T13:38:31;7.40;99.90
59923;DHT22;45778;51.142;3.732;2023-03-14T13:41:04;7.20;99.90
59923;DHT22;45778;51.142;3.732;2023-03-14T13:43:33;7.30;99.90
59923;DHT22;45778;51.142;3.732;2023-03-14T13:46:25;7.00;99.90
59923;DHT22;45778;51.142;3.732;2023-03-14T13:49:04;6.60;99.90
59923;DHT22;45778;51.142;3.732;2023-03-14T13:51:31;6.40;99.90
59923;DHT22;45778;51.142;3.732;2023-03-14T13:54:01;6.10;99.90
59923;DHT22;45778;51.142;3.732;2023-03-14T13:56:31;6.10;99.90
59923;DHT22;45778;51.142;3.732;2023-03-14T13:58:58;6.20;99.90
59923;DHT22;45778;51.142;3.732;2023-03-14T14:03:51;6.50;99.90
59923;DHT22;45778;51.142;3.732;2023-03-14T14:06:30;6.60;99.90
59923;DHT22;45778;51.142;3.732;2023-03-14T14:09:02;6.70;99.90
59923;DHT22;45778;51.142;3.732;2023-03-14T14:11:41;6.80;99.90
59923;DHT22;45778;51.142;3.732;2023-03-14T14:14:14;7.00;99.90
59923;DHT22;45778;51.142;3.732;2023-03-14T14:16:43;7.00;99.90
59923;DHT22;45778;51.142;3.732;2023-03-14T14:19:09;7.10;99.90
59923;DHT22;45778;51.142;3.732;2023-03-14T14:21:35;7.10;99.90
59923;DHT22;45778;51.142;3.732;2023-03-14T14:24:01;7.10;99.90
59923;DHT22;45778;51.142;3.732;2023-03-14T14:26:28;7.30;99.90
59923;DHT22;45778;51.142;3.732;2023-03-14T14:29:05;7.40;99.90
59923;DHT22;45778;51.142;3.732;2023-03-14T14:31:31;7.70;99.90
59923;DHT22;45778;51.142;3.732;2023-03-14T14:34:01;7.50;99.90
59923;DHT22;45778;51.142;3.732;2023-03-14T14:36:29;7.30;99.90
59923;DHT22;45778;51.142;3.732;2023-03-14T14:39:17;7.20;99.90
59923;DHT22;45778;51.142;3.732;2023-03-14T14:41:44;7.30;99.10
59923;DHT22;45778;51.142;3.732;2023-03-14T14:44:14;7.20;99.90
59923;DHT22;45778;51.142;3.732;2023-03-14T14:46:42;7.20;99.90
59923;DHT22;45778;51.142;3.732;2023-03-14T14:49:14;7.40;99.90
59923;DHT22;45778;51.142;3.732;2023-03-14T14:51:48;7.40;99.90
59923;DHT22;45778;51.142;3.732;2023-03-14T14:54:17;7.30;99.90
59923;DHT22;45778;51.142;3.732;2023-03-14T14:56:49;7.30;99.90
59923;DHT22;45778;51.142;3.732;2023-03-14T14:59:28;7.10;99.90
59923;DHT22;45778;51.142;3.732;2023-03-14T15:01:58;7.10;99.90
59923;DHT22;45778;51.142;3.732;2023-03-14T15:04:24;7.10;99.90
59923;DHT22;45778;51.142;3.732;2023-03-14T15:06:50;7.10;99.90
59923;DHT22;45778;51.142;3.732;2023-03-14T15:09:18;7.10;99.90
59923;DHT22;45778;51.142;3.732;2023-03-14T15:11:45;7.10;99.90
59923;DHT22;45778;51.142;3.732;2023-03-14T15:14:11;7.20;99.90
59923;DHT22;45778;51.142;3.732;2023-03-14T15:16:38;7.10;99.90
59923;DHT22;45778;51.142;3.732;2023-03-14T15:19:24;7.20;99.90
59923;DHT22;45778;51.142;3.732;2023-03-14T15:21:51;7.30;99.90
59923;DHT22;45778;51.142;3.732;2023-03-14T15:24:17;7.40;99.90
59923;DHT22;45778;51.142;3.732;2023-03-14T15:26:42;7.40;99.90
59923;DHT22;45778;51.142;3.732;2023-03-14T15:29:11;7.40;99.90
59923;DHT22;45778;51.142;3.732;2023-03-14T15:31:38;7.40;99.90
59923;DHT22;45778;51.142;3.732;2023-03-14T15:34:04;7.40;99.90
59923;DHT22;45778;51.142;3.732;2023-03-14T15:36:32;7.40;99.90
59923;DHT22;45778;51.142;3.732;2023-03-14T15:38:59;7.40;99.90
59923;DHT22;45778;51.142;3.732;2023-03-14T15:41:25;7.40;99.90
59923;DHT22;45778;51.142;3.732;2023-03-14T15:43:51;7.60;99.90
59923;DHT22;45778;51.142;3.732;2023-03-14T15:46:17;7.60;99.90
59923;DHT22;45778;51.142;3.732;2023-03-14T15:48:44;7.90;99.90
59923;DHT22;45778;51.142;3.732;2023-03-14T15:51:11;8.60;99.90
59923;DHT22;45778;51.142;3.732;2023-03-14T15:53:37;9.70;99.90
59923;DHT22;45778;51.142;3.732;2023-03-14T15:56:09;10.70;99.90
59923;DHT22;45778;51.142;3.732;2023-03-14T15:58:36;11.70;97.80
59923;DHT22;45778;51.142;3.732;2023-03-14T16:01:02;11.00;97.70
59923;DHT22;45778;51.142;3.732;2023-03-14T16:03:31;11.40;97.60
59923;DHT22;45778;51.142;3.732;2023-03-14T16:05:56;11.30;95.60
59923;DHT22;45778;51.142;3.732;2023-03-14T16:08:23;11.20;95.50
59923;DHT22;45778;51.142;3.732;2023-03-14T16:10:51;10.10;96.40
59923;DHT22;45778;51.142;3.732;2023-03-14T16:13:18;9.50;98.20
59923;DHT22;45778;51.142;3.732;2023-03-14T16:15:53;9.00;98.30
59923;DHT22;45778;51.142;3.732;2023-03-14T16:18:19;9.00;98.60
59923;DHT22;45778;51.142;3.732;2023-03-14T16:20:52;8.70;99.40
59923;DHT22;45778;51.142;3.732;2023-03-14T16:23:17;8.40;99.90
59923;DHT22;45778;51.142;3.732;2023-03-14T16:25:44;8.30;99.90
59923;DHT22;45778;51.142;3.732;2023-03-14T16:28:10;8.10;99.90
59923;DHT22;45778;51.142;3.732;2023-03-14T16:30:35;8.10;99.80
59923;DHT22;45778;51.142;3.732;2023-03-14T16:33:01;8.10;99.90
59923;DHT22;45778;51.142;3.732;2023-03-14T16:35:27;8.30;99.90
59923;DHT22;45778;51.142;3.732;2023-03-14T16:37:53;8.20;99.90
59923;DHT22;45778;51.142;3.732;2023-03-14T16:40:19;8.20;99.90
59923;DHT22;45778;51.142;3.732;2023-03-14T16:42:45;8.20;99.90
59923;DHT22;45778;51.142;3.732;2023-03-14T16:45:10;8.30;99.90
59923;DHT22;45778;51.142;3.732;2023-03-14T16:47:36;8.30;99.90
59923;DHT22;45778;51.142;3.732;2023-03-14T16:50:02;8.20;99.90
59923;DHT22;45778;51.142;3.732;2023-03-14T16:52:27;8.10;99.90
59923;DHT22;45778;51.142;3.732;2023-03-14T16:54:53;8.00;99.90
59923;DHT22;45778;51.142;3.732;2023-03-14T16:57:19;8.10;99.90
59923;DHT22;45778;51.142;3.732;2023-03-14T16:59:44;8.80;99.90
59923;DHT22;45778;51.142;3.732;2023-03-14T17:02:10;9.20;99.50
59923;DHT22;45778;51.142;3.732;2023-03-14T17:04:39;9.10;99.80